Mosquitoville, Vermont
Current Conditions -  °F | °C
As of 4:51 PM on Monday 24 Nov 2014 (Local Time) from KMPV Reporting Station
Broken Clouds Broken Clouds  
Wind Chill: 58°   Ceiling: 8000
Heat Index: 58°   Visibility: 10mi
Dew Point: 55°   Wind: 18mph
Humidity: 90%   Direction: 170°S
Pressure: 29.47"   Gusts: 24mph
Location:  44.1959°N, 72.0788°W
Report Text: KMPV 242151Z AUTO 17016G21KT 10SM FEW050 FEW060 BKN080 14/13 A2947 RMK AO2 SLP981 T01440128
Loading
Personal Weather Stations






























Interactive Weather Map New forecast layout! Learn more

10-Day Weather Forecast

Advertisements
Track Severe Weather on mobile